Time;durP1;ratioP1;P1;durP2;ratioP2;P2;SDS_P1;SDS_P2;PMS_P1;PMS_P2;Temp;Humidity;BMP_temperature;BMP_pressure;BME280_temperature;BME280_humidity;BME280_pressure;Samples;Min_cycle;Max_cycle;Signal;HPM_P1;HPM_P2
2022/05/14 00:01:53;;;;;;;0.20;0.20;;;21.10;53.60;;;;;;4978130;28;20027;-15
2022/05/14 00:04:18;;;;;;;0.10;0.10;;;21.20;53.70;;;;;;4976806;28;20038;-15
2022/05/14 00:06:44;;;;;;;1.05;0.47;;;21.20;53.40;;;;;;4977359;28;20027;-15
2022/05/14 00:09:10;;;;;;;0.60;0.20;;;21.10;53.40;;;;;;4977978;28;20035;-16
2022/05/14 00:14:20;;;;;;;0.15;0.15;;;21.00;53.60;;;;;;4976987;28;20038;-15
2022/05/14 00:16:46;;;;;;;0.30;0.15;;;21.10;53.70;;;;;;4977909;28;20046;-14
2022/05/14 00:19:11;;;;;;;0.30;0.20;;;21.10;53.50;;;;;;4977225;28;20073;-15
2022/05/14 00:21:37;;;;;;;0.20;0.17;;;21.10;53.70;;;;;;4975834;28;20058;-15
2022/05/14 00:24:06;;;;;;;0.25;0.20;;;21.10;53.60;;;;;;4977716;28;20031;-15
2022/05/14 00:26:36;;;;;;;0.13;0.13;;;21.10;53.80;;;;;;4977972;28;20035;-16
2022/05/14 00:29:02;;;;;;;0.10;0.10;;;21.10;53.80;;;;;;4977673;28;20047;-15
2022/05/14 00:31:29;;;;;;;0.52;0.20;;;21.00;53.80;;;;;;4976088;28;20035;-16
2022/05/14 00:33:55;;;;;;;0.20;0.20;;;21.10;53.80;;;;;;4977791;28;20026;-15
2022/05/14 00:36:21;;;;;;;0.20;0.20;;;21.00;53.50;;;;;;4971023;28;20031;-15
2022/05/14 00:38:46;;;;;;;0.30;0.20;;;21.00;53.70;;;;;;4958321;29;20027;-14
2022/05/14 00:41:12;;;;;;;0.25;0.22;;;21.00;53.90;;;;;;4958337;29;20024;-15
2022/05/14 00:43:59;;;;;;;0.32;0.20;;;21.00;53.80;;;;;;4962825;28;20027;-15
2022/05/14 00:46:33;;;;;;;0.30;0.30;;;21.00;53.60;;;;;;4977284;28;20101;-15
2022/05/14 00:48:59;;;;;;;0.10;0.10;;;21.00;53.80;;;;;;4943180;29;20039;-15
2022/05/14 00:51:28;;;;;;;0.25;0.25;;;21.00;53.70;;;;;;4973367;28;20042;-15
2022/05/14 00:54:05;;;;;;;0.10;0.10;;;21.00;53.70;;;;;;4976263;28;20050;-15
2022/05/14 00:56:32;;;;;;;0.20;0.20;;;21.00;53.70;;;;;;4957173;29;20050;-15
2022/05/14 00:59:08;;;;;;;2.05;0.13;;;21.00;53.70;;;;;;4941414;29;20027;-15
2022/05/14 01:01:34;;;;;;;0.20;0.10;;;21.00;53.80;;;;;;4972328;28;20058;-15
2022/05/14 01:04:00;;;;;;;0.30;0.20;;;21.00;53.90;;;;;;4981397;28;20023;-15
2022/05/14 01:06:26;;;;;;;0.30;0.30;;;21.00;53.60;;;;;;4980491;28;20114;-15
2022/05/14 01:08:51;;;;;;;0.28;0.20;;;21.00;53.60;;;;;;4976662;28;20106;-16
2022/05/14 01:11:17;;;;;;;0.10;0.10;;;21.00;54.00;;;;;;4961804;29;20024;-15
2022/05/14 01:13:43;;;;;;;0.10;0.10;;;21.00;53.70;;;;;;4973917;28;20078;-15
2022/05/14 01:16:08;;;;;;;0.32;0.10;;;21.00;53.80;;;;;;4980456;28;21060;-16
2022/05/14 01:18:35;;;;;;;0.10;0.10;;;21.00;53.60;;;;;;4981257;28;20034;-15
2022/05/14 01:21:05;;;;;;;0.17;0.17;;;20.90;54.00;;;;;;4981052;28;20045;-15
2022/05/14 01:26:40;;;;;;;0.38;0.10;;;20.90;54.10;;;;;;4962962;28;20570;-15
2022/05/14 01:29:19;;;;;;;0.30;0.20;;;20.90;54.10;;;;;;4979346;28;20019;-15
2022/05/14 01:31:45;;;;;;;0.20;0.20;;;20.90;54.20;;;;;;4980162;28;20031;-16
2022/05/14 01:34:15;;;;;;;0.10;0.10;;;20.90;53.80;;;;;;4980751;28;20123;-14
2022/05/14 01:36:41;;;;;;;0.20;0.20;;;20.90;53.90;;;;;;4979383;28;20605;-15
2022/05/14 01:39:06;;;;;;;0.45;0.20;;;20.90;53.80;;;;;;4978821;28;20634;-15
2022/05/14 01:41:32;;;;;;;0.30;0.28;;;20.90;53.90;;;;;;4980572;28;20019;-15
2022/05/14 01:43:58;;;;;;;0.40;0.20;;;20.90;53.70;;;;;;4979781;28;20019;-15
2022/05/14 01:46:23;;;;;;;0.20;0.10;;;20.90;53.90;;;;;;4979081;28;20022;-15
2022/05/14 01:48:49;;;;;;;0.30;0.20;;;20.90;53.70;;;;;;4980467;28;20023;-15
2022/05/14 01:51:15;;;;;;;0.20;0.10;;;20.90;53.80;;;;;;4979759;28;20116;-15
2022/05/14 01:53:41;;;;;;;0.30;0.13;;;20.90;53.80;;;;;;4979099;28;20030;-15
2022/05/14 01:56:06;;;;;;;0.20;0.20;;;20.90;54.20;;;;;;4979839;28;20026;-15
2022/05/14 01:58:38;;;;;;;1.15;0.22;;;20.90;54.10;;;;;;4963364;28;20031;-14
2022/05/14 02:01:20;;;;;;;0.52;0.38;;;20.80;54.10;;;;;;4967273;28;20118;-15
2022/05/14 02:03:51;;;;;;;0.45;0.38;;;20.90;54.10;;;;;;4966776;28;20033;-15
2022/05/14 02:06:16;;;;;;;0.28;0.20;;;20.90;53.90;;;;;;4964602;28;20034;-16
2022/05/14 02:08:42;;;;;;;0.20;0.20;;;20.90;53.90;;;;;;4979806;28;20037;-15
2022/05/14 02:11:08;;;;;;;0.38;0.22;;;20.90;53.80;;;;;;4979203;28;20063;-15
2022/05/14 02:13:34;;;;;;;0.28;0.28;;;20.90;54.00;;;;;;4979870;28;20027;-15
2022/05/14 02:16:00;;;;;;;0.45;0.30;;;20.90;54.00;;;;;;4979956;28;20022;-15
2022/05/14 02:18:25;;;;;;;0.10;0.10;;;20.80;53.80;;;;;;4979723;28;20038;-15
2022/05/14 02:20:51;;;;;;;0.28;0.28;;;20.80;53.80;;;;;;4971663;28;20035;-15
2022/05/14 02:23:17;;;;;;;0.22;0.10;;;20.80;53.80;;;;;;4966660;28;20504;-15
2022/05/14 02:25:42;;;;;;;0.15;0.10;;;20.90;54.10;;;;;;4979759;28;20026;-15
2022/05/14 02:28:08;;;;;;;0.95;0.30;;;20.80;54.00;;;;;;4978968;28;20396;-15
2022/05/14 02:30:34;;;;;;;0.82;0.10;;;20.90;54.10;;;;;;4979699;28;20091;-15
2022/05/14 02:32:59;;;;;;;0.90;0.22;;;20.80;53.60;;;;;;4966070;28;20086;-15
2022/05/14 02:35:25;;;;;;;0.40;0.20;;;20.80;53.80;;;;;;4960285;29;20389;-15
2022/05/14 02:37:51;;;;;;;0.20;0.10;;;20.80;54.20;;;;;;4960249;29;20102;-15
2022/05/14 02:40:16;;;;;;;0.10;0.10;;;20.80;54.20;;;;;;4969325;28;20019;-15
2022/05/14 02:42:42;;;;;;;0.30;0.30;;;20.80;53.50;;;;;;4979352;28;20093;-15
2022/05/14 02:45:08;;;;;;;0.28;0.20;;;20.80;54.00;;;;;;4978780;28;20094;-15
2022/05/14 02:47:34;;;;;;;0.40;0.20;;;20.80;54.20;;;;;;4977854;28;20507;-15
2022/05/14 02:49:59;;;;;;;0.17;0.17;;;20.80;53.80;;;;;;4978062;28;20444;-15
2022/05/14 02:52:25;;;;;;;0.20;0.20;;;20.70;54.20;;;;;;4978687;28;20027;-15
2022/05/14 02:54:51;;;;;;;0.40;0.20;;;20.70;54.00;;;;;;4975618;28;20055;-16
2022/05/14 02:57:17;;;;;;;0.20;0.15;;;20.70;54.20;;;;;;4959747;29;20582;-15
2022/05/14 02:59:43;;;;;;;0.30;0.25;;;20.70;54.40;;;;;;4967871;28;20078;-15
2022/05/14 03:02:08;;;;;;;0.63;0.20;;;20.70;53.90;;;;;;4979099;28;20061;-16
2022/05/14 03:04:38;;;;;;;0.30;0.10;;;20.70;53.90;;;;;;4978612;28;20407;-15
2022/05/14 03:07:08;;;;;;;0.47;0.20;;;20.70;54.10;;;;;;4977976;28;20222;-15
2022/05/14 03:09:34;;;;;;;0.30;0.20;;;20.70;54.20;;;;;;4979155;28;20023;-15
2022/05/14 03:12:00;;;;;;;0.45;0.20;;;20.70;54.30;;;;;;4978260;28;20042;-15
2022/05/14 03:14:26;;;;;;;0.10;0.10;;;20.70;54.20;;;;;;4978767;28;20038;-15
2022/05/14 03:16:51;;;;;;;2.22;0.30;;;20.70;54.70;;;;;;4978884;28;20058;-15
2022/05/14 03:19:17;;;;;;;0.30;0.20;;;20.70;53.90;;;;;;4978057;28;20026;-15
2022/05/14 03:21:43;;;;;;;0.20;0.20;;;20.70;54.20;;;;;;4977138;28;20045;-15
2022/05/14 03:24:10;;;;;;;0.63;0.20;;;20.70;54.40;;;;;;4978194;28;20113;-15
2022/05/14 03:26:36;;;;;;;0.20;0.20;;;20.70;54.00;;;;;;4977911;28;20475;-15
2022/05/14 03:29:03;;;;;;;0.20;0.10;;;20.70;54.10;;;;;;4978543;28;20131;-15
2022/05/14 03:31:29;;;;;;;0.20;0.10;;;20.70;54.20;;;;;;4978421;28;20023;-15
2022/05/14 03:33:54;;;;;;;0.25;0.25;;;20.70;54.30;;;;;;4977860;28;20034;-15
2022/05/14 03:36:20;;;;;;;0.22;0.20;;;20.70;54.10;;;;;;4978546;28;20034;-14
2022/05/14 03:38:45;;;;;;;0.30;0.22;;;20.70;54.00;;;;;;4978382;28;20026;-16
2022/05/14 03:41:11;;;;;;;0.32;0.20;;;20.70;54.60;;;;;;4978468;28;20059;-15
2022/05/14 03:43:37;;;;;;;0.28;0.22;;;20.70;54.40;;;;;;4977422;28;20031;-15
2022/05/14 03:46:03;;;;;;;0.10;0.10;;;20.70;54.30;;;;;;4978261;28;20034;-15
2022/05/14 03:48:28;;;;;;;0.38;0.25;;;20.70;54.20;;;;;;4978254;28;20054;-15
2022/05/14 03:50:54;;;;;;;0.40;0.40;;;20.70;54.30;;;;;;4977781;28;20119;-15
2022/05/14 03:53:20;;;;;;;0.28;0.10;;;20.60;54.00;;;;;;4978130;28;20094;-15
2022/05/14 03:55:46;;;;;;;0.10;0.10;;;20.60;54.30;;;;;;4977513;28;20058;-16
2022/05/14 03:58:11;;;;;;;0.55;0.40;;;20.60;54.00;;;;;;4977944;28;20034;-15
2022/05/14 04:00:37;;;;;;;0.30;0.30;;;20.60;54.00;;;;;;4977447;28;20123;-15
2022/05/14 04:03:03;;;;;;;1.60;0.38;;;20.70;53.90;;;;;;4978121;28;20150;-15
2022/05/14 04:05:28;;;;;;;0.55;0.25;;;20.70;54.00;;;;;;4977414;28;20058;-15
2022/05/14 04:07:54;;;;;;;0.25;0.10;;;20.70;53.80;;;;;;4977966;28;20030;-15
2022/05/14 04:10:20;;;;;;;0.85;0.30;;;20.70;53.90;;;;;;4978252;28;20027;-15
2022/05/14 04:12:46;;;;;;;0.30;0.20;;;20.70;54.00;;;;;;4977365;28;20080;-15
2022/05/14 04:15:12;;;;;;;1.27;0.20;;;20.70;54.10;;;;;;4977950;28;20547;-15
2022/05/14 04:17:38;;;;;;;0.30;0.20;;;20.70;54.00;;;;;;4977929;28;20431;-15
2022/05/14 04:20:04;;;;;;;0.52;0.30;;;20.70;53.80;;;;;;4977948;28;20026;-15
2022/05/14 04:22:30;;;;;;;0.20;0.20;;;20.70;54.00;;;;;;4948258;28;20101;-16
2022/05/14 04:24:56;;;;;;;0.15;0.15;;;20.60;53.90;;;;;;4976881;28;20038;-15
2022/05/14 04:27:21;;;;;;;0.25;0.25;;;20.60;54.20;;;;;;4977626;28;20038;-15
2022/05/14 04:29:47;;;;;;;0.65;0.35;;;20.60;54.10;;;;;;4977820;28;20034;-15
2022/05/14 04:32:12;;;;;;;0.20;0.17;;;20.60;53.90;;;;;;4977092;28;20548;-15
2022/05/14 04:34:38;;;;;;;0.75;0.32;;;20.60;54.00;;;;;;4978701;28;20037;-16
2022/05/14 04:37:04;;;;;;;0.20;0.20;;;20.60;53.80;;;;;;4980453;28;20030;-16
2022/05/14 04:39:32;;;;;;;0.20;0.13;;;20.60;54.20;;;;;;4968141;28;20094;-15
2022/05/14 04:42:01;;;;;;;0.17;0.10;;;20.60;54.10;;;;;;4962104;29;20035;-15
2022/05/14 04:44:28;;;;;;;0.20;0.17;;;20.60;54.00;;;;;;4962666;28;20035;-15
2022/05/14 04:46:53;;;;;;;0.45;0.20;;;20.60;54.00;;;;;;4970701;28;20026;-15
2022/05/14 04:49:19;;;;;;;0.32;0.20;;;20.60;53.90;;;;;;4980938;28;20050;-15
2022/05/14 04:51:45;;;;;;;0.28;0.10;;;20.60;54.40;;;;;;4981423;28;20399;-15
2022/05/14 04:54:11;;;;;;;0.10;0.10;;;20.60;54.00;;;;;;4981491;28;20026;-15
2022/05/14 04:56:37;;;;;;;0.13;0.13;;;20.60;54.10;;;;;;4962325;28;20539;-15
2022/05/14 04:59:03;;;;;;;0.20;0.13;;;20.60;53.90;;;;;;4961837;28;20028;-17
2022/05/14 05:01:28;;;;;;;0.40;0.40;;;20.60;54.00;;;;;;4979693;28;20023;-15
2022/05/14 05:03:54;;;;;;;0.30;0.20;;;20.60;54.10;;;;;;4980860;28;20027;-15
2022/05/14 05:06:23;;;;;;;0.10;0.10;;;20.60;53.70;;;;;;4981260;28;20023;-15
2022/05/14 05:08:49;;;;;;;0.20;0.20;;;20.60;53.90;;;;;;4980820;28;20031;-15
2022/05/14 05:11:15;;;;;;;0.32;0.30;;;20.60;53.90;;;;;;4980821;28;20054;-16
2022/05/14 05:13:41;;;;;;;0.30;0.22;;;20.60;53.90;;;;;;4980919;28;20019;-17
2022/05/14 05:16:06;;;;;;;0.10;0.10;;;20.60;54.20;;;;;;4981041;28;20023;-15
2022/05/14 05:18:32;;;;;;;0.32;0.20;;;20.60;53.60;;;;;;4981083;28;20476;-15
2022/05/14 05:20:57;;;;;;;0.17;0.17;;;20.60;53.70;;;;;;4980226;28;20031;-15
2022/05/14 05:23:24;;;;;;;0.20;0.20;;;20.60;53.80;;;;;;4979254;28;20058;-15
2022/05/14 05:25:49;;;;;;;0.28;0.20;;;20.50;54.00;;;;;;4980897;28;20030;-15
2022/05/14 05:28:15;;;;;;;0.32;0.25;;;20.60;54.00;;;;;;4979917;28;20034;-14
2022/05/14 05:30:41;;;;;;;0.52;0.20;;;20.60;54.00;;;;;;4979545;28;20026;-15
2022/05/14 05:33:14;;;;;;;0.10;0.10;;;20.60;54.20;;;;;;4980156;28;20022;-16
2022/05/14 05:35:40;;;;;;;0.77;0.30;;;20.60;54.10;;;;;;4980155;28;20050;-15
2022/05/14 05:38:06;;;;;;;0.25;0.22;;;20.60;53.90;;;;;;4980546;28;20038;-15
2022/05/14 05:40:33;;;;;;;0.60;0.30;;;20.60;53.90;;;;;;4980203;28;20053;-15
2022/05/14 05:42:59;;;;;;;0.38;0.30;;;20.50;55.00;;;;;;4979842;28;20113;-15
2022/05/14 05:45:25;;;;;;;0.20;0.10;;;20.60;54.90;;;;;;4978172;28;20511;-15
2022/05/14 05:47:50;;;;;;;0.20;0.20;;;20.50;55.20;;;;;;4959585;28;20484;-16
2022/05/14 05:50:16;;;;;;;1.55;0.20;;;20.50;55.10;;;;;;4979878;28;20053;-14
2022/05/14 05:52:42;;;;;;;0.63;0.20;;;20.50;55.00;;;;;;4980523;28;20027;-15
2022/05/14 05:57:52;;;;;;;0.82;0.25;;;20.50;54.70;;;;;;4975870;28;20042;-15
2022/05/14 06:00:20;;;;;;;0.50;0.30;;;20.40;54.40;;;;;;4960843;28;20500;-15
2022/05/14 06:02:49;;;;;;;0.80;0.30;;;20.30;54.30;;;;;;4961287;28;20066;-15
2022/05/14 06:05:15;;;;;;;0.70;0.30;;;20.30;54.30;;;;;;4969864;28;20081;-15
2022/05/14 06:07:41;;;;;;;1.40;0.22;;;20.30;54.30;;;;;;4977089;28;20150;-15
2022/05/14 06:10:09;;;;;;;0.60;0.40;;;20.30;54.30;;;;;;4978456;28;20047;-15
2022/05/14 06:12:38;;;;;;;0.60;0.30;;;20.20;54.10;;;;;;4987485;28;20042;-16
2022/05/14 06:15:05;;;;;;;0.40;0.30;;;20.20;54.10;;;;;;4978458;28;20035;-15
2022/05/14 06:17:31;;;;;;;0.50;0.40;;;20.20;54.70;;;;;;4974676;28;20035;-16
2022/05/14 06:19:56;;;;;;;0.95;0.38;;;20.20;54.10;;;;;;4978059;28;20062;-15
2022/05/14 06:22:22;;;;;;;0.50;0.30;;;20.20;54.10;;;;;;4978987;28;20532;-14
2022/05/14 06:24:48;;;;;;;2.50;0.60;;;20.10;54.00;;;;;;4977914;28;20031;-15
2022/05/14 06:27:13;;;;;;;0.68;0.40;;;20.20;54.10;;;;;;4966086;28;20034;-15
2022/05/14 06:29:39;;;;;;;0.40;0.32;;;20.20;54.00;;;;;;4979444;28;20061;-14
2022/05/14 06:32:05;;;;;;;0.40;0.30;;;20.20;53.90;;;;;;4977825;28;20027;-15
2022/05/14 06:34:30;;;;;;;1.20;0.50;;;20.20;53.90;;;;;;4979176;28;20026;-15
2022/05/14 06:36:56;;;;;;;2.40;0.90;;;20.30;53.80;;;;;;4979483;28;20037;-15
2022/05/14 06:39:22;;;;;;;0.98;0.40;;;20.20;52.90;;;;;;4979586;28;20034;-15
2022/05/14 06:41:48;;;;;;;0.88;0.73;;;20.00;53.60;;;;;;4978971;28;20145;-14
2022/05/14 06:44:13;;;;;;;0.90;0.60;;;19.70;54.40;;;;;;4979646;28;20022;-15
2022/05/14 06:46:39;;;;;;;1.40;0.80;;;19.60;55.60;;;;;;4635285;28;10000092;-15
2022/05/14 06:49:05;;;;;;;2.03;0.63;;;19.40;55.50;;;;;;4984088;28;20027;-15
2022/05/14 06:51:31;;;;;;;1.52;0.77;;;19.30;56.00;;;;;;4974477;28;20039;-15
2022/05/14 06:54:02;;;;;;;1.48;0.77;;;19.30;56.30;;;;;;4975250;28;20019;-14
2022/05/14 06:56:28;;;;;;;1.15;0.40;;;19.30;56.40;;;;;;4986317;28;20026;-15
2022/05/14 06:58:54;;;;;;;0.82;0.47;;;19.20;56.50;;;;;;4973930;28;20038;-15
2022/05/14 07:01:19;;;;;;;0.75;0.47;;;19.20;56.80;;;;;;4973969;28;20043;-15
2022/05/14 07:06:38;;;;;;;0.80;0.50;;;19.10;57.20;;;;;;4976164;28;20048;-14
2022/05/14 07:09:05;;;;;;;0.93;0.50;;;19.20;57.00;;;;;;4984013;28;20042;-15
2022/05/14 07:11:32;;;;;;;0.55;0.40;;;19.10;57.30;;;;;;4975150;28;20621;-14
2022/05/14 07:13:58;;;;;;;1.83;0.47;;;19.10;57.60;;;;;;4975135;28;20411;-15
2022/05/14 07:16:24;;;;;;;0.98;0.57;;;19.10;57.50;;;;;;4979214;28;20026;-15
2022/05/14 07:18:50;;;;;;;2.38;0.70;;;19.10;57.50;;;;;;4984903;28;20039;-15
2022/05/14 07:21:15;;;;;;;0.68;0.38;;;19.10;57.50;;;;;;4971662;28;20037;-14
2022/05/14 07:23:41;;;;;;;0.85;0.63;;;19.10;57.60;;;;;;4967904;28;20074;-14
2022/05/14 07:26:07;;;;;;;0.43;0.43;;;19.10;57.80;;;;;;4974163;28;20026;-14
2022/05/14 07:28:34;;;;;;;2.03;0.55;;;19.20;57.60;;;;;;4976285;28;20054;-15
2022/05/14 07:31:03;;;;;;;2.25;0.55;;;19.20;57.70;;;;;;4976025;28;20019;-15
2022/05/14 07:33:29;;;;;;;0.82;0.47;;;19.20;58.00;;;;;;4971943;28;20108;-15
2022/05/14 07:35:56;;;;;;;1.60;0.60;;;19.10;58.30;;;;;;4958610;29;20023;-14
2022/05/14 07:38:21;;;;;;;1.05;0.60;;;19.10;58.40;;;;;;4958819;28;20075;-15
2022/05/14 07:40:47;;;;;;;2.55;0.65;;;19.10;58.30;;;;;;4976385;28;20027;-15
2022/05/14 07:43:21;;;;;;;1.27;0.50;;;19.10;58.40;;;;;;4976674;28;20031;-15
2022/05/14 07:45:50;;;;;;;1.35;0.52;;;19.10;58.30;;;;;;4977001;28;20018;-15
2022/05/14 07:48:17;;;;;;;2.25;0.80;;;19.20;58.30;;;;;;4967200;28;20035;-15
2022/05/14 07:50:43;;;;;;;0.85;0.82;;;19.20;58.60;;;;;;4967688;28;20027;-14
2022/05/14 07:53:09;;;;;;;3.85;1.48;;;19.20;58.90;;;;;;4976890;28;20521;-14
2022/05/14 07:55:34;;;;;;;5.10;1.92;;;19.20;58.80;;;;;;4977394;28;20030;-14
2022/05/14 07:58:00;;;;;;;5.13;2.10;;;19.20;59.10;;;;;;4977877;28;20106;-15
2022/05/14 08:00:26;;;;;;;3.10;1.83;;;19.20;59.00;;;;;;4976290;28;20252;-14
2022/05/14 08:02:52;;;;;;;6.80;2.40;;;19.30;59.10;;;;;;4967821;28;20062;-17
2022/05/14 08:05:20;;;;;;;3.50;2.17;;;19.30;58.70;;;;;;4959509;28;20547;-17
2022/05/14 08:07:46;;;;;;;2.78;1.38;;;19.30;58.70;;;;;;4958599;28;20501;-17
2022/05/14 08:10:13;;;;;;;3.35;1.27;;;19.30;58.60;;;;;;4961823;28;20046;-16
2022/05/14 08:12:40;;;;;;;1.20;0.90;;;19.40;58.50;;;;;;4958226;28;20914;-16
2022/05/14 08:15:06;;;;;;;2.08;0.95;;;19.40;58.50;;;;;;4975003;28;20126;-16
2022/05/14 08:17:32;;;;;;;1.95;0.80;;;19.40;58.40;;;;;;4959958;28;20051;-16
2022/05/14 08:19:58;;;;;;;2.03;0.80;;;19.50;58.20;;;;;;4960761;28;20061;-17
2022/05/14 08:25:08;;;;;;;2.67;0.85;;;19.60;57.30;;;;;;4959343;28;20138;-16
2022/05/14 08:27:44;;;;;;;1.45;0.63;;;19.60;57.20;;;;;;4960244;28;20055;-16
2022/05/14 08:30:11;;;;;;;2.45;0.70;;;19.70;57.40;;;;;;4959919;28;20050;-16
2022/05/14 08:32:37;;;;;;;1.08;0.70;;;19.70;57.30;;;;;;4960860;28;20046;-16
2022/05/14 08:35:03;;;;;;;0.95;0.55;;;19.70;57.20;;;;;;4958870;28;20055;-16
2022/05/14 08:37:28;;;;;;;2.03;0.57;;;19.80;56.60;;;;;;4960441;28;20051;-16
2022/05/14 08:39:54;;;;;;;1.00;0.68;;;19.90;56.60;;;;;;4961352;28;20070;-16
2022/05/14 08:42:19;;;;;;;1.17;0.40;;;20.00;56.30;;;;;;4960432;28;20050;-16
2022/05/14 08:44:45;;;;;;;1.85;0.52;;;20.00;56.40;;;;;;4958935;28;20063;-17
2022/05/14 08:47:24;;;;;;;1.38;0.70;;;20.10;56.20;;;;;;4960343;28;20046;-16
2022/05/14 08:49:53;;;;;;;1.23;0.45;;;20.10;56.00;;;;;;4942858;28;20054;-15
2022/05/14 08:52:23;;;;;;;1.45;0.98;;;20.20;56.00;;;;;;4958629;28;20042;-16
2022/05/14 08:54:51;;;;;;;2.60;0.57;;;20.20;55.90;;;;;;4960539;28;20046;-16
2022/05/14 08:57:25;;;;;;;1.25;0.65;;;20.20;56.00;;;;;;4959178;28;20077;-16
2022/05/14 08:59:59;;;;;;;1.50;0.60;;;20.30;55.90;;;;;;4961852;28;20055;-16
2022/05/14 09:02:24;;;;;;;0.80;0.70;;;20.30;55.80;;;;;;4959042;28;20625;-16
2022/05/14 09:04:56;;;;;;;0.80;0.60;;;20.30;55.80;;;;;;4959951;28;20110;-16
2022/05/14 09:07:22;;;;;;;1.10;0.50;;;20.30;55.80;;;;;;4956513;28;21346;-18
2022/05/14 09:09:49;;;;;;;1.17;0.60;;;20.50;55.60;;;;;;4961163;28;20051;-21
2022/05/14 09:12:16;;;;;;;0.90;0.50;;;20.50;55.50;;;;;;4960764;28;20057;-16
2022/05/14 09:14:42;;;;;;;1.08;0.52;;;20.50;55.30;;;;;;4959748;28;20594;-16
2022/05/14 09:17:20;;;;;;;1.27;0.80;;;20.60;55.30;;;;;;4961053;28;20494;-16
2022/05/14 09:19:46;;;;;;;0.60;0.50;;;20.70;55.00;;;;;;4961682;28;20535;-17
2022/05/14 09:22:28;;;;;;;0.60;0.50;;;20.70;55.00;;;;;;4965608;28;20858;-15
2022/05/14 09:25:15;;;;;;;1.27;0.50;;;20.70;54.90;;;;;;4972315;28;20047;-16
2022/05/14 09:27:48;;;;;;;1.42;0.52;;;20.80;54.80;;;;;;4977133;28;20050;-16
2022/05/14 09:30:42;;;;;;;0.85;0.50;;;20.80;54.70;;;;;;4977021;28;20055;-16
2022/05/14 09:33:09;;;;;;;0.70;0.50;;;20.80;54.80;;;;;;4976849;28;20078;-17
2022/05/14 09:35:35;;;;;;;0.45;0.38;;;20.70;54.70;;;;;;4961899;28;20043;-16
2022/05/14 09:38:21;;;;;;;0.90;0.50;;;20.70;54.60;;;;;;4977964;28;20053;-18
2022/05/14 09:40:46;;;;;;;0.90;0.57;;;20.70;54.80;;;;;;4990551;28;20043;-16
2022/05/14 09:43:24;;;;;;;0.70;0.50;;;20.80;54.80;;;;;;4976112;28;20043;-16
2022/05/14 09:46:07;;;;;;;0.70;0.68;;;20.80;54.70;;;;;;4976606;28;20042;-16
2022/05/14 09:48:43;;;;;;;1.20;0.50;;;20.80;54.60;;;;;;4978062;28;20066;-16
2022/05/14 09:51:09;;;;;;;0.60;0.60;;;20.80;54.60;;;;;;4977002;28;20077;-16
2022/05/14 09:53:37;;;;;;;0.52;0.43;;;20.70;54.70;;;;;;4977007;28;20038;-16
2022/05/14 09:56:09;;;;;;;0.52;0.52;;;20.70;54.70;;;;;;4978318;28;20046;-16
2022/05/14 09:59:01;;;;;;;0.75;0.60;;;20.70;54.80;;;;;;4993072;28;20070;-16
2022/05/14 10:01:37;;;;;;;0.80;0.60;;;20.70;54.90;;;;;;4976958;28;20109;-16
2022/05/14 10:04:27;;;;;;;0.60;0.60;;;20.70;54.80;;;;;;4961390;28;20046;-16
2022/05/14 10:06:55;;;;;;;0.60;0.60;;;20.70;54.80;;;;;;4957903;28;20644;-16
2022/05/14 10:09:25;;;;;;;0.77;0.57;;;20.70;54.80;;;;;;4941212;28;20071;-16
2022/05/14 10:12:03;;;;;;;1.00;0.85;;;20.70;54.80;;;;;;4957999;28;20090;-16
2022/05/14 10:14:50;;;;;;;0.57;0.55;;;20.70;54.80;;;;;;4958892;28;20126;-16
2022/05/14 10:17:42;;;;;;;0.60;0.60;;;20.70;54.80;;;;;;4966152;28;20512;-16
2022/05/14 10:20:37;;;;;;;2.75;0.52;;;20.70;54.80;;;;;;4975422;28;20046;-16
2022/05/14 10:29:19;;;;;;;0.52;0.47;;;20.70;54.80;;;;;;4973053;28;20472;-16
2022/05/14 10:32:05;;;;;;;0.50;0.50;;;20.70;54.70;;;;;;4978086;28;20094;-16
2022/05/14 10:34:56;;;;;;;0.93;0.73;;;20.80;54.70;;;;;;4958004;28;20050;-16
2022/05/14 10:37:48;;;;;;;0.65;0.63;;;20.80;54.70;;;;;;4943721;28;20043;-16
2022/05/14 10:40:34;;;;;;;0.70;0.65;;;20.80;54.70;;;;;;4959588;28;20043;-16
2022/05/14 10:43:31;;;;;;;1.67;0.40;;;20.80;54.70;;;;;;4957551;28;20067;-16
2022/05/14 10:45:57;;;;;;;0.82;0.63;;;20.80;54.70;;;;;;4958704;28;20047;-16
2022/05/14 10:48:56;;;;;;;1.52;0.88;;;20.80;54.70;;;;;;4958076;28;20066;-16
2022/05/14 10:51:24;;;;;;;0.77;0.70;;;20.80;54.70;;;;;;4965536;28;20058;-16
2022/05/14 10:53:50;;;;;;;0.68;0.68;;;20.80;54.60;;;;;;4976550;28;20045;-16
2022/05/14 10:56:24;;;;;;;0.60;0.50;;;20.80;54.70;;;;;;4975951;28;20047;-16
2022/05/14 10:59:07;;;;;;;0.68;0.68;;;20.80;54.70;;;;;;4977787;28;20415;-16
2022/05/14 11:01:36;;;;;;;1.67;0.70;;;20.80;54.70;;;;;;4958684;28;20059;-17
2022/05/14 11:04:23;;;;;;;0.60;0.60;;;20.80;54.70;;;;;;4958655;28;20035;-16
2022/05/14 11:06:55;;;;;;;0.80;0.60;;;20.80;54.80;;;;;;4944614;28;20545;-16
2022/05/14 11:09:37;;;;;;;0.63;0.50;;;20.80;54.80;;;;;;4937413;28;20054;-16
2022/05/14 11:12:12;;;;;;;0.57;0.50;;;20.80;54.80;;;;;;4939089;29;20049;-15
2022/05/14 11:14:52;;;;;;;1.05;0.70;;;20.80;54.70;;;;;;4922104;29;20040;-16
2022/05/14 11:17:23;;;;;;;0.40;0.40;;;20.80;54.80;;;;;;4948051;28;20460;-16
2022/05/14 11:19:49;;;;;;;0.52;0.52;;;20.80;54.80;;;;;;4958285;28;20094;-16
2022/05/14 11:22:19;;;;;;;1.08;0.90;;;20.80;54.80;;;;;;4964553;28;20138;-16
2022/05/14 11:24:45;;;;;;;0.60;0.60;;;20.90;54.70;;;;;;4630838;28;10000033;-18
2022/05/14 11:27:11;;;;;;;0.77;0.60;;;20.90;54.70;;;;;;4972900;28;20050;-16
2022/05/14 11:29:49;;;;;;;0.50;0.50;;;20.80;54.70;;;;;;4973471;28;20113;-16
2022/05/14 11:32:19;;;;;;;0.70;0.70;;;20.80;54.80;;;;;;4969856;28;20752;-17
2022/05/14 11:34:55;;;;;;;0.73;0.60;;;20.90;54.80;;;;;;4955705;28;20051;-16
2022/05/14 11:37:49;;;;;;;1.42;0.50;;;20.90;54.70;;;;;;4972627;28;20043;-16
2022/05/14 11:40:20;;;;;;;0.45;0.45;;;20.90;54.70;;;;;;4975468;28;20047;-18
2022/05/14 11:42:50;;;;;;;0.50;0.50;;;20.90;54.70;;;;;;4973307;28;20053;-16
2022/05/14 11:45:21;;;;;;;1.75;0.50;;;21.00;54.70;;;;;;4982151;28;20137;-16
2022/05/14 11:48:04;;;;;;;2.25;0.65;;;21.00;54.70;;;;;;4979074;28;20053;-16
2022/05/14 11:50:50;;;;;;;1.55;0.70;;;21.00;54.80;;;;;;4977592;28;20508;-16
2022/05/14 11:53:32;;;;;;;1.00;0.90;;;20.90;54.70;;;;;;4962425;28;20508;-16
2022/05/14 11:56:06;;;;;;;0.85;0.85;;;21.00;54.80;;;;;;4973495;28;20515;-16
2022/05/14 11:58:36;;;;;;;;;;;21.00;54.80;;;;;;4978403;28;20046;-15
2022/05/14 12:01:11;;;;;;;1.10;1.00;;;21.00;54.90;;;;;;4987786;28;20357;-15
2022/05/14 12:03:41;;;;;;;1.30;1.20;;;21.00;55.00;;;;;;4970869;28;20061;-15
2022/05/14 12:06:09;;;;;;;1.45;1.35;;;21.00;55.00;;;;;;4971881;28;20073;-15
2022/05/14 12:09:02;;;;;;;1.75;1.60;;;21.00;55.00;;;;;;4972163;28;20149;-17
2022/05/14 12:11:41;;;;;;;1.75;1.65;;;21.00;55.00;;;;;;4965314;28;20050;-16
2022/05/14 12:14:15;;;;;;;2.10;1.90;;;21.00;55.00;;;;;;4987042;28;20473;-16
2022/05/14 12:16:52;;;;;;;2.60;2.30;;;21.00;55.00;;;;;;4971106;28;20051;-16
2022/05/14 12:19:39;;;;;;;2.15;2.05;;;21.00;55.00;;;;;;4972554;28;20062;-16
2022/05/14 12:22:15;;;;;;;2.30;2.10;;;21.10;55.10;;;;;;4959020;28;20091;-16
2022/05/14 12:24:40;;;;;;;2.70;2.50;;;21.00;55.10;;;;;;4971294;28;20058;-15
2022/05/14 12:27:24;;;;;;;2.70;2.50;;;21.00;55.20;;;;;;4972848;28;20047;-16
2022/05/14 12:29:56;;;;;;;2.70;2.50;;;21.10;55.30;;;;;;4973032;28;20107;-16
2022/05/14 12:35:21;;;;;;;2.67;2.50;;;21.10;55.30;;;;;;4963134;28;20698;-16
2022/05/14 12:37:47;;;;;;;2.88;2.58;;;21.10;55.30;;;;;;4972248;28;20043;-16
2022/05/14 12:40:23;;;;;;;2.72;2.63;;;21.10;55.30;;;;;;4972234;28;20047;-16
2022/05/14 12:42:49;;;;;;;2.70;2.50;;;21.10;55.40;;;;;;4955760;28;20043;-16
2022/05/14 12:45:15;;;;;;;2.67;2.47;;;21.10;55.40;;;;;;4972333;28;20047;-16
2022/05/14 12:47:40;;;;;;;2.50;2.40;;;21.20;55.40;;;;;;4970085;28;20110;-16
2022/05/14 12:50:26;;;;;;;2.63;2.50;;;21.10;55.40;;;;;;4972355;28;20141;-16
2022/05/14 12:52:56;;;;;;;2.50;2.30;;;21.20;55.40;;;;;;4970252;28;20097;-16
2022/05/14 12:55:22;;;;;;;3.05;2.55;;;21.20;55.40;;;;;;4972618;28;20054;-16
2022/05/14 12:57:48;;;;;;;2.42;2.25;;;21.20;55.40;;;;;;4955948;28;20087;-16
2022/05/14 13:00:18;;;;;;;2.22;2.13;;;21.20;55.40;;;;;;4967942;28;20053;-16
2022/05/14 13:02:50;;;;;;;2.50;2.30;;;21.20;55.50;;;;;;4946186;28;20043;-16
2022/05/14 13:05:35;;;;;;;2.50;2.30;;;21.20;55.40;;;;;;4977443;28;20050;-16
2022/05/14 13:08:10;;;;;;;2.08;1.98;;;21.30;55.30;;;;;;4972809;28;20055;-16
2022/05/14 13:10:37;;;;;;;2.35;2.25;;;21.30;55.50;;;;;;4973392;28;20518;-16
2022/05/14 13:13:07;;;;;;;1.77;1.67;;;21.30;55.40;;;;;;4974058;28;20519;-16
2022/05/14 13:15:41;;;;;;;2.08;1.98;;;21.30;55.50;;;;;;4970961;28;20574;-16
2022/05/14 13:18:14;;;;;;;1.92;1.77;;;21.30;55.70;;;;;;4972679;28;20047;-16
2022/05/14 13:20:39;;;;;;;2.00;1.90;;;21.30;55.60;;;;;;4973961;28;20463;-16
2022/05/14 13:23:16;;;;;;;1.83;1.73;;;21.30;55.80;;;;;;4981456;28;20073;-17